Home > Products > Valid Products > TAF

000
FTUS43 KDDC 030520
TAFGCK
TAF
KGCK 030520Z 0306/0406 14006KT P6SM BKN250
     FM031500 17010KT P6SM SCT250 PROB30 0322/0403 5SM TSRA
      BKN060CB=



000
FTUS43 KDDC 030520
TAFGCK
TAF
KGCK 030520Z 0306/0406 14006KT P6SM BKN250
     FM031500 17010KT P6SM SCT250 PROB30 0322/0403 5SM TSRA
      BKN060CB=



000
FTUS43 KDDC 030520
TAFHYS
TAF
KHYS 030520Z 0306/0406 20005KT P6SM SCT250
     FM031800 16008KT P6SM SCT250=



000
FTUS43 KDDC 030520
TAFDDC
TAF
KDDC 030520Z 0306/0406 15006KT P6SM BKN250
     FM031300 17012KT P6SM SCT250 PROB30 0400/0406 5SM TSRA
      BKN060CB=



000
FTUS43 KDDC 030520
TAFHYS
TAF
KHYS 030520Z 0306/0406 20005KT P6SM SCT250
     FM031800 16008KT P6SM SCT250=



000
FTUS43 KDDC 030520
TAFHYS
TAF
KHYS 030520Z 0306/0406 20005KT P6SM SCT250
     FM031800 16008KT P6SM SCT250=



000
FTUS43 KDDC 030520
TAFDDC
TAF
KDDC 030520Z 0306/0406 15006KT P6SM BKN250
     FM031300 17012KT P6SM SCT250 PROB30 0400/0406 5SM TSRA
      BKN060CB=



000
FTUS43 KDDC 030520
TAFDDC
TAF
KDDC 030520Z 0306/0406 15006KT P6SM BKN250
     FM031300 17012KT P6SM SCT250 PROB30 0400/0406 5SM TSRA
      BKN060CB=



000
FTUS43 KDDC 030520
TAFHYS
TAF
KHYS 030520Z 0306/0406 20005KT P6SM SCT250
     FM031800 16008KT P6SM SCT250=



000
FTUS43 KDDC 030520
TAFGCK
TAF
KGCK 030520Z 0306/0406 14006KT P6SM BKN250
     FM031500 17010KT P6SM SCT250 PROB30 0322/0403 5SM TSRA
      BKN060CB=



000
FTUS43 KDDC 030520
TAFGCK
TAF
KGCK 030520Z 0306/0406 14006KT P6SM BKN250
     FM031500 17010KT P6SM SCT250 PROB30 0322/0403 5SM TSRA
      BKN060CB=



000
FTUS43 KDDC 030520
TAFDDC
TAF
KDDC 030520Z 0306/0406 15006KT P6SM BKN250
     FM031300 17012KT P6SM SCT250 PROB30 0400/0406 5SM TSRA
      BKN060CB=



000
FTUS43 KDDC 030417 AAC
TAFHYS
TAF AMD
KHYS 030417Z 0304/0324 VRB06KT P6SM BKN140
     FM030430 19008KT P6SM FEW060 BKN250=



000
FTUS43 KDDC 030221 AAB
TAFHYS
TAF AMD
KHYS 030221Z 0302/0324 19008KT P6SM VCTS BKN060CB
     FM030430 19008KT P6SM FEW060 BKN250=



000
FTUS43 KDDC 030221 AAB
TAFHYS
TAF AMD
KHYS 030221Z 0302/0324 19008KT P6SM VCTS BKN060CB
     FM030430 19008KT P6SM FEW060 BKN250=



000
FTUS43 KDDC 030221 AAB
TAFHYS
TAF AMD
KHYS 030221Z 0302/0324 19008KT P6SM VCTS BKN060CB
     FM030430 19008KT P6SM FEW060 BKN250=



000
FTUS43 KDDC 030221 AAB
TAFHYS
TAF AMD
KHYS 030221Z 0302/0324 19008KT P6SM VCTS BKN060CB
     FM030430 19008KT P6SM FEW060 BKN250=



000
FTUS43 KDDC 030101 AAA
TAFHYS
TAF AMD
KHYS 030101Z 0301/0324 19008KT P6SM VCTS BKN060CB
     FM030230 19008KT P6SM FEW060 BKN250=



000
FTUS43 KDDC 030101 AAA
TAFHYS
TAF AMD
KHYS 030101Z 0301/0324 19008KT P6SM VCTS BKN060CB
     FM030230 19008KT P6SM FEW060 BKN250=



000
FTUS43 KDDC 022327
TAFHYS
TAF
KHYS 022327Z 0300/0324 19008KT P6SM FEW060 BKN250=



000
FTUS43 KDDC 022327
TAFHYS
TAF
KHYS 022327Z 0300/0324 19008KT P6SM FEW060 BKN250=



000
FTUS43 KDDC 022327
TAFGCK
TAF
KGCK 022327Z 0300/0324 15005KT P6SM BKN250
     FM031500 18012KT P6SM SCT250=



000
FTUS43 KDDC 022327
TAFDDC
TAF
KDDC 022327Z 0300/0324 15006KT P6SM FEW060 BKN250
     FM031500 18012KT P6SM SCT250=



000
FTUS43 KDDC 022327
TAFGCK
TAF
KGCK 022327Z 0300/0324 15005KT P6SM BKN250
     FM031500 18012KT P6SM SCT250=



000
FTUS43 KDDC 022327
TAFDDC
TAF
KDDC 022327Z 0300/0324 15006KT P6SM FEW060 BKN250
     FM031500 18012KT P6SM SCT250=



000
FTUS43 KDDC 021749 RRA
TAFDDC
TAF
KDDC 021749Z 0218/0318 19010KT P6SM SKC
     FM030000 16007KT P6SM SKC=



000
FTUS43 KDDC 021749 RRA
TAFHYS
TAF
KHYS 021749Z 0218/0318 19009G15KT P6SM SKC
     FM030000 16006KT P6SM SKC=



000
FTUS43 KDDC 021749 RRA
TAFDDC
TAF
KDDC 021749Z 0218/0318 19010KT P6SM SKC
     FM030000 16007KT P6SM SKC=



000
FTUS43 KDDC 021749 RRA
TAFGCK
TAF
KGCK 021749Z 0218/0318 19008KT P6SM SKC
     FM022200 16008KT P6SM SKC=



000
FTUS43 KDDC 021749 RRA
TAFHYS
TAF
KHYS 021749Z 0218/0318 19009G15KT P6SM SKC
     FM030000 16006KT P6SM SKC=



000
FTUS43 KDDC 021749 RRA
TAFGCK
TAF
KGCK 021749Z 0218/0318 19008KT P6SM SKC
     FM022200 16008KT P6SM SKC=



000
FTUS43 KDDC 021120
TAFDDC
TAF
KDDC 021120Z 0212/0312 17007KT P6SM SCT250
     FM021500 19010G15KT P6SM BKN250
     FM030000 16007KT P6SM SCT250=



000
FTUS43 KDDC 021120
TAFHYS
TAF
KHYS 021120Z 0212/0312 17005KT P6SM SCT250
     FM021500 19009G15KT P6SM SCT250
     FM030000 16006KT P6SM SCT250=



000
FTUS43 KDDC 021120
TAFGCK
TAF
KGCK 021120Z 0212/0312 17006KT P6SM SCT250
     FM021500 19008G15KT P6SM BKN250
     FM022200 16008KT P6SM SCT250=



000
FTUS43 KDDC 021120
TAFDDC
TAF
KDDC 021120Z 0212/0312 17007KT P6SM SCT250
     FM021500 19010G15KT P6SM BKN250
     FM030000 16007KT P6SM SCT250=



000
FTUS43 KDDC 021120
TAFDDC
TAF
KDDC 021120Z 0212/0312 17007KT P6SM SCT250
     FM021500 19010G15KT P6SM BKN250
     FM030000 16007KT P6SM SCT250=



000
FTUS43 KDDC 021120
TAFGCK
TAF
KGCK 021120Z 0212/0312 17006KT P6SM SCT250
     FM021500 19008G15KT P6SM BKN250
     FM022200 16008KT P6SM SCT250=



000
FTUS43 KDDC 021120
TAFGCK
TAF
KGCK 021120Z 0212/0312 17006KT P6SM SCT250
     FM021500 19008G15KT P6SM BKN250
     FM022200 16008KT P6SM SCT250=



000
FTUS43 KDDC 021120
TAFHYS
TAF
KHYS 021120Z 0212/0312 17005KT P6SM SCT250
     FM021500 19009G15KT P6SM SCT250
     FM030000 16006KT P6SM SCT250=



000
FTUS43 KDDC 021120
TAFHYS
TAF
KHYS 021120Z 0212/0312 17005KT P6SM SCT250
     FM021500 19009G15KT P6SM SCT250
     FM030000 16006KT P6SM SCT250=



000
FTUS43 KDDC 021120
TAFDDC
TAF
KDDC 021120Z 0212/0312 17007KT P6SM SCT250
     FM021500 19010G15KT P6SM BKN250
     FM030000 16007KT P6SM SCT250=



000
FTUS43 KDDC 020520
TAFDDC
TAF
KDDC 020520Z 0206/0306 17007KT P6SM SCT250
     FM021500 19010G15KT P6SM BKN250
     FM030000 16007KT P6SM SCT250=



000
FTUS43 KDDC 020520
TAFHYS
TAF
KHYS 020520Z 0206/0306 17005KT P6SM SCT250
     FM021500 19009G15KT P6SM SCT250
     FM030000 16006KT P6SM SCT250=



000
FTUS43 KDDC 020520
TAFHYS
TAF
KHYS 020520Z 0206/0306 17005KT P6SM SCT250
     FM021500 19009G15KT P6SM SCT250
     FM030000 16006KT P6SM SCT250=



000
FTUS43 KDDC 020520
TAFHYS
TAF
KHYS 020520Z 0206/0306 17005KT P6SM SCT250
     FM021500 19009G15KT P6SM SCT250
     FM030000 16006KT P6SM SCT250=



000
FTUS43 KDDC 020520
TAFDDC
TAF
KDDC 020520Z 0206/0306 17007KT P6SM SCT250
     FM021500 19010G15KT P6SM BKN250
     FM030000 16007KT P6SM SCT250=



000
FTUS43 KDDC 020520
TAFGCK
TAF
KGCK 020520Z 0206/0306 17006KT P6SM SCT250
     FM021500 19008G15KT P6SM BKN250
     FM022200 16008KT P6SM SCT250=



000
FTUS43 KDDC 020520
TAFGCK
TAF
KGCK 020520Z 0206/0306 17006KT P6SM SCT250
     FM021500 19008G15KT P6SM BKN250
     FM022200 16008KT P6SM SCT250=



000
FTUS43 KDDC 012328
TAFDDC
TAF
KDDC 012328Z 0200/0224 17007KT P6SM SCT060
     FM021500 20014G22KT P6SM FEW250=



000
FTUS43 KDDC 012328
TAFHYS
TAF
KHYS 012328Z 0200/0224 17009KT P6SM SCT080=



000
FTUS43 KDDC 012328
TAFDDC
TAF
KDDC 012328Z 0200/0224 17007KT P6SM SCT060
     FM021500 20014G22KT P6SM FEW250=



000
FTUS43 KDDC 012328
TAFHYS
TAF
KHYS 012328Z 0200/0224 17009KT P6SM SCT080=



000
FTUS43 KDDC 012328
TAFGCK
TAF
KGCK 012328Z 0200/0224 17008KT P6SM SCT060
     FM021500 20014G22KT P6SM FEW250=



000
FTUS43 KDDC 012328
TAFGCK
TAF
KGCK 012328Z 0200/0224 17008KT P6SM SCT060
     FM021500 20014G22KT P6SM FEW250=



000
FTUS43 KDDC 012328
TAFGCK
TAF
KGCK 012328Z 0200/0224 17008KT P6SM SCT060
     FM021500 20014G22KT P6SM FEW250=



000
FTUS43 KDDC 012328
TAFDDC
TAF
KDDC 012328Z 0200/0224 17007KT P6SM SCT060
     FM021500 20014G22KT P6SM FEW250=



000
FTUS43 KDDC 012328
TAFHYS
TAF
KHYS 012328Z 0200/0224 17009KT P6SM SCT080=



000
FTUS43 KDDC 011734
TAFHYS
TAF
KHYS 011734Z 0118/0218 18012KT P6SM SCT250
     FM020200 18007KT P6SM SCT250=



000
FTUS43 KDDC 011734
TAFDDC
TAF
KDDC 011734Z 0118/0218 18010G19KT P6SM SCT250
     FM020200 18007KT P6SM SCT250=



000
FTUS43 KDDC 011734
TAFGCK
TAF
KGCK 011734Z 0118/0218 18010G20KT P6SM SCT250
     FM020200 18007KT P6SM SCT250=



000
FTUS43 KDDC 011734
TAFGCK
TAF
KGCK 011734Z 0118/0218 18010G20KT P6SM SCT250
     FM020200 18007KT P6SM SCT250=



000
FTUS43 KDDC 011734
TAFDDC
TAF
KDDC 011734Z 0118/0218 18010G19KT P6SM SCT250
     FM020200 18007KT P6SM SCT250=



000
FTUS43 KDDC 011734
TAFDDC
TAF
KDDC 011734Z 0118/0218 18010G19KT P6SM SCT250
     FM020200 18007KT P6SM SCT250=



000
FTUS43 KDDC 011734
TAFHYS
TAF
KHYS 011734Z 0118/0218 18012KT P6SM SCT250
     FM020200 18007KT P6SM SCT250=



000
FTUS43 KDDC 011734
TAFHYS
TAF
KHYS 011734Z 0118/0218 18012KT P6SM SCT250
     FM020200 18007KT P6SM SCT250=



000
FTUS43 KDDC 011734
TAFGCK
TAF
KGCK 011734Z 0118/0218 18010G20KT P6SM SCT250
     FM020200 18007KT P6SM SCT250=



000
FTUS43 KDDC 011609 AAB
TAFGCK
TAF AMD
KGCK 011609Z 0116/0212 18010G20KT P6SM SCT250
     FM020200 18007KT P6SM SCT250=



000
FTUS43 KDDC 011609 AAB
TAFGCK
TAF AMD
KGCK 011609Z 0116/0212 18010G20KT P6SM SCT250
     FM020200 18007KT P6SM SCT250=



000
FTUS43 KDDC 011608 AAB
TAFDDC
TAF AMD
KDDC 011608Z 0116/0212 18010G19KT P6SM SCT250
     FM020200 18007KT P6SM SCT250=



000
FTUS43 KDDC 011608 AAB
TAFDDC
TAF AMD
KDDC 011608Z 0116/0212 18010G19KT P6SM SCT250
     FM020200 18007KT P6SM SCT250=



000
FTUS43 KDDC 011347 AAA
TAFGCK
TAF AMD
KGCK 011347Z 0114/0212 24005KT 1/4SM FG VV001
     FM011500 18012G20KT P6SM SCT250
     FM020200 18007KT P6SM SCT250=



000
FTUS43 KDDC 011347 AAA
TAFGCK
TAF AMD
KGCK 011347Z 0114/0212 24005KT 1/4SM FG VV001
     FM011500 18012G20KT P6SM SCT250
     FM020200 18007KT P6SM SCT250=



000
FTUS43 KDDC 011120
TAFHYS
TAF
KHYS 011120Z 0112/0212 23006KT 4SM BR SKC
     FM011500 18012G20KT P6SM SCT250
     FM020200 18007KT P6SM SCT250=



000
FTUS43 KDDC 011120
TAFGCK
TAF
KGCK 011120Z 0112/0212 24005KT 2SM BR SKC
     FM011500 18012G20KT P6SM SCT250
     FM020200 18007KT P6SM SCT250=



000
FTUS43 KDDC 011120
TAFHYS
TAF
KHYS 011120Z 0112/0212 23006KT 4SM BR SKC
     FM011500 18012G20KT P6SM SCT250
     FM020200 18007KT P6SM SCT250=



000
FTUS43 KDDC 011120
TAFHYS
TAF
KHYS 011120Z 0112/0212 23006KT 4SM BR SKC
     FM011500 18012G20KT P6SM SCT250
     FM020200 18007KT P6SM SCT250=



000
FTUS43 KDDC 011120
TAFGCK
TAF
KGCK 011120Z 0112/0212 24005KT 2SM BR SKC
     FM011500 18012G20KT P6SM SCT250
     FM020200 18007KT P6SM SCT250=



000
FTUS43 KDDC 011120
TAFDDC
TAF
KDDC 011120Z 0112/0212 21004KT 2SM BR SKC
     FM011500 18012G20KT P6SM SCT250
     FM020200 18007KT P6SM SCT250=



000
FTUS43 KDDC 011120
TAFHYS
TAF
KHYS 011120Z 0112/0212 23006KT 4SM BR SKC
     FM011500 18012G20KT P6SM SCT250
     FM020200 18007KT P6SM SCT250=



000
FTUS43 KDDC 011120
TAFGCK
TAF
KGCK 011120Z 0112/0212 24005KT 2SM BR SKC
     FM011500 18012G20KT P6SM SCT250
     FM020200 18007KT P6SM SCT250=



000
FTUS43 KDDC 011120
TAFDDC
TAF
KDDC 011120Z 0112/0212 21004KT 2SM BR SKC
     FM011500 18012G20KT P6SM SCT250
     FM020200 18007KT P6SM SCT250=



000
FTUS43 KDDC 011120
TAFDDC
TAF
KDDC 011120Z 0112/0212 21004KT 2SM BR SKC
     FM011500 18012G20KT P6SM SCT250
     FM020200 18007KT P6SM SCT250=



000
FTUS43 KDDC 011120
TAFGCK
TAF
KGCK 011120Z 0112/0212 24005KT 2SM BR SKC
     FM011500 18012G20KT P6SM SCT250
     FM020200 18007KT P6SM SCT250=



000
FTUS43 KDDC 011120
TAFDDC
TAF
KDDC 011120Z 0112/0212 21004KT 2SM BR SKC
     FM011500 18012G20KT P6SM SCT250
     FM020200 18007KT P6SM SCT250=



000
FTUS43 KDDC 010520
TAFHYS
TAF
KHYS 010520Z 0106/0206 18005KT P6SM SKC
     FM011800 18012G20KT P6SM SCT250
     FM020200 18007KT P6SM SCT250=



000
FTUS43 KDDC 010520
TAFGCK
TAF
KGCK 010520Z 0106/0206 17005KT P6SM SKC
     FM011800 18012G20KT P6SM SCT250
     FM020200 18007KT P6SM SCT250=



000
FTUS43 KDDC 010520
TAFDDC
TAF
KDDC 010520Z 0106/0206 19005KT P6SM SKC
     FM011800 18012G20KT P6SM SCT250
     FM020200 18007KT P6SM SCT250=



000
FTUS43 KDDC 010520
TAFGCK
TAF
KGCK 010520Z 0106/0206 17005KT P6SM SKC
     FM011800 18012G20KT P6SM SCT250
     FM020200 18007KT P6SM SCT250=



000
FTUS43 KDDC 010520
TAFHYS
TAF
KHYS 010520Z 0106/0206 18005KT P6SM SKC
     FM011800 18012G20KT P6SM SCT250
     FM020200 18007KT P6SM SCT250=



000
FTUS43 KDDC 010520
TAFHYS
TAF
KHYS 010520Z 0106/0206 18005KT P6SM SKC
     FM011800 18012G20KT P6SM SCT250
     FM020200 18007KT P6SM SCT250=



000
FTUS43 KDDC 010520
TAFGCK
TAF
KGCK 010520Z 0106/0206 17005KT P6SM SKC
     FM011800 18012G20KT P6SM SCT250
     FM020200 18007KT P6SM SCT250=



000
FTUS43 KDDC 312320
TAFDDC
TAF
KDDC 312320Z 0100/0124 17006KT P6SM SCT050=



000
FTUS43 KDDC 312320
TAFDDC
TAF
KDDC 312320Z 0100/0124 24004KT P6SM FEW030=



000
FTUS43 KDDC 312320
TAFDDC
TAF
KDDC 312320Z 0100/0124 24004KT P6SM FEW030=



000
FTUS43 KDDC 312320
TAFHYS
TAF
KHYS 312320Z 0100/0124 25006KT P6SM SKC=



000
FTUS43 KDDC 312320
TAFGCK
TAF
KGCK 312320Z 0100/0124 17006KT P6SM SCT050=



000
FTUS43 KDDC 312320
TAFGCK
TAF
KGCK 312320Z 0100/0124 20008KT P6SM FEW025=



000
FTUS43 KDDC 312320
TAFDDC
TAF
KDDC 312320Z 0100/0124 17006KT P6SM SCT050=



000
FTUS43 KDDC 312320
TAFHYS
TAF
KHYS 312320Z 0100/0124 17008KT P6SM SCT150=



000
FTUS43 KDDC 312131 CCA
TAFGCK
TAF COR
KGCK 312131Z 3122/0118 22007KT P6SM SKC=



000
FTUS43 KDDC 312131 CCA
TAFHYS
TAF COR
KHYS 312131Z 3122/0118 16007KT P6SM SKC=



000
FTUS43 KDDC 312131 CCA
TAFHYS
TAF COR
KHYS 312131Z 3122/0118 16007KT P6SM SKC=



000
FTUS43 KDDC 312131 CCA
TAFDDC
TAF COR
KDDC 312131Z 3122/0118 20005KT P6SM FEW060=



000
FTUS43 KDDC 312131 CCA
TAFGCK
TAF COR
KGCK 312131Z 3122/0118 22007KT P6SM SKC=



000
FTUS43 KDDC 312131 CCA
TAFDDC
TAF COR
KDDC 312131Z 3122/0118 20005KT P6SM FEW060=



000
FTUS43 KDDC 311411 AAA
TAFHYS
TAF AMD
KHYS 311411Z 3114/0112 VRB06KT P6SM SKC=



000
FTUS43 KDDC 311411 AAA
TAFHYS
TAF AMD
KHYS 311411Z 3114/0112 VRB06KT P6SM SKC=



000
FTUS43 KDDC 311411 AAA
TAFHYS
TAF AMD
KHYS 311411Z 3114/0112 VRB06KT P6SM SKC=



000
FTUS43 KDDC 311409 AAB
TAFGCK
TAF AMD
KGCK 311409Z 3114/0112 VRB06KT P6SM SCT150=



000
FTUS43 KDDC 311409 AAB
TAFGCK
TAF AMD
KGCK 311409Z 3114/0112 VRB06KT P6SM SCT150=



000
FTUS43 KDDC 311409 AAB
TAFGCK
TAF AMD
KGCK 311409Z 3114/0112 VRB06KT P6SM SCT150=



000
FTUS43 KDDC 311221 AAA
TAFGCK
TAF AMD
KGCK 311221Z 3112/0112 VRB05KT 4SM BR BKN250
     FM311500 17006KT P6SM BKN150=



000
FTUS43 KDDC 311221 AAA
TAFGCK
TAF AMD
KGCK 311221Z 3112/0112 VRB05KT 4SM BR BKN250
     FM311500 17006KT P6SM BKN150=



000
FTUS43 KDDC 311221 AAA
TAFGCK
TAF AMD
KGCK 311221Z 3112/0112 VRB05KT 4SM BR BKN250
     FM311500 17006KT P6SM BKN150=



000
FTUS43 KDDC 311221 AAA
TAFGCK
TAF AMD
KGCK 311221Z 3112/0112 VRB05KT 4SM BR BKN250
     FM311500 17006KT P6SM BKN150=



000
FTUS43 KDDC 311120
TAFDDC
TAF
KDDC 311120Z 3112/0112 VRB05KT 4SM BR BKN250
     FM311500 17006KT P6SM BKN150=



000
FTUS43 KDDC 311120
TAFGCK
TAF
KGCK 311120Z 3112/0112 VRB05KT 4SM BR BKN005
     FM311500 17006KT P6SM BKN150=



000
FTUS43 KDDC 311120
TAFHYS
TAF
KHYS 311120Z 3112/0112 VRB04KT 3SM BR SKC
     FM311500 17006KT P6SM SCT250=



000
FTUS43 KDDC 311120
TAFDDC
TAF
KDDC 311120Z 3112/0112 VRB05KT 4SM BR BKN250
     FM311500 17006KT P6SM BKN150=



000
FTUS43 KDDC 311120
TAFGCK
TAF
KGCK 311120Z 3112/0112 VRB05KT 4SM BR BKN005
     FM311500 17006KT P6SM BKN150=



000
FTUS43 KDDC 311120
TAFHYS
TAF
KHYS 311120Z 3112/0112 VRB04KT 3SM BR SKC
     FM311500 17006KT P6SM SCT250=



    US Dept of Commerce
    National Oceanic and Atmospheric Administration
    National Weather Service
    1325 East West Highway
    Silver Spring, MD 20910
    Page Author: NWS Internet Services Team
Disclaimer
Information Quality
Credits
Glossary
Privacy Policy
Freedom of Information Act (FOIA)
About Us
Career Opportunities